createdAt,value
2022-08-23T00:00:37.007Z,18.89
2022-08-23T00:04:02.917Z,18.72
2022-08-23T00:06:02.980Z,18.72
2022-08-23T00:07:03.301Z,18.74
2022-08-23T00:08:03.750Z,18.63
2022-08-23T00:10:03.083Z,18.63
2022-08-23T00:11:03.114Z,18.60
2022-08-23T00:12:03.141Z,18.63
2022-08-23T00:13:03.181Z,18.63
2022-08-23T00:22:09.125Z,18.56
2022-08-23T00:23:09.156Z,18.51
2022-08-23T00:25:09.228Z,18.53
2022-08-23T00:36:08.527Z,18.24
2022-08-23T00:40:16.557Z,18.23
2022-08-23T00:41:16.307Z,18.31
2022-08-23T00:42:16.319Z,18.19
2022-08-23T00:45:16.427Z,18.26
2022-08-23T00:46:16.853Z,18.24
2022-08-23T00:47:17.189Z,18.19
2022-08-23T00:48:17.115Z,18.24
2022-08-23T00:51:16.596Z,18.10
2022-08-23T00:53:16.641Z,18.10
2022-08-23T00:54:16.672Z,18.08
2022-08-23T00:55:16.699Z,18.08
2022-08-23T00:56:16.730Z,18.01
2022-08-23T00:59:44.639Z,17.99
2022-08-23T01:01:17.974Z,18.01
2022-08-23T01:01:44.867Z,17.94
2022-08-23T01:02:44.541Z,17.94
2022-08-23T01:04:44.597Z,17.99
2022-08-23T01:06:44.658Z,17.98
2022-08-23T01:08:45.323Z,18.01
2022-08-23T01:09:44.951Z,17.94
2022-08-23T01:11:17.992Z,17.95
2022-08-23T01:13:45.271Z,17.84
2022-08-23T01:14:45.503Z,17.87
2022-08-23T01:15:45.121Z,17.84
2022-08-23T01:16:44.940Z,17.74
2022-08-23T01:17:44.966Z,17.92
2022-08-23T01:18:44.997Z,17.79
2022-08-23T01:19:45.024Z,17.81
2022-08-23T01:20:45.055Z,17.77
2022-08-23T01:21:45.083Z,17.80
2022-08-23T01:22:45.316Z,17.83
2022-08-23T01:23:45.343Z,17.87
2022-08-23T01:25:06.514Z,17.77
2022-08-23T01:25:45.199Z,17.79
2022-08-23T01:26:45.231Z,17.88
2022-08-23T01:27:45.257Z,17.81
2022-08-23T01:28:45.898Z,17.76
2022-08-23T01:29:45.327Z,17.81
2022-08-23T01:30:45.348Z,17.86
2022-08-23T01:32:45.416Z,17.86
2022-08-23T01:33:45.638Z,17.86
2022-08-23T01:34:51.638Z,17.98
2022-08-23T01:35:45.495Z,17.96
2022-08-23T01:37:45.563Z,18.03
2022-08-23T01:38:48.202Z,17.99
2022-08-23T01:39:45.695Z,18.05
2022-08-23T01:40:45.637Z,18.10
2022-08-23T01:41:45.665Z,18.16
2022-08-23T01:42:45.709Z,18.08
2022-08-23T01:43:45.736Z,18.10
2022-08-23T01:46:45.815Z,18.05
2022-08-23T01:47:45.858Z,18.03
2022-08-23T01:48:45.870Z,17.99
2022-08-23T01:49:45.899Z,17.96
2022-08-23T01:50:45.940Z,17.96
2022-08-23T01:51:45.956Z,17.88
2022-08-23T01:52:46.766Z,17.96
2022-08-23T01:53:46.015Z,17.94
2022-08-23T01:54:46.046Z,17.92
2022-08-23T01:55:46.088Z,17.86
2022-08-23T01:56:46.119Z,17.84
2022-08-23T01:57:49.299Z,17.87
2022-08-23T01:58:46.175Z,17.73
2022-08-23T01:59:46.190Z,17.80
2022-08-23T02:00:46.222Z,17.68
2022-08-23T02:01:46.324Z,17.76
2022-08-23T02:02:46.282Z,17.74
2022-08-23T02:03:46.308Z,17.65
2022-08-23T02:04:46.340Z,17.73
2022-08-23T02:05:46.624Z,17.69
2022-08-23T02:06:46.406Z,17.65
2022-08-23T02:07:46.426Z,17.58
2022-08-23T02:08:46.456Z,17.69
2022-08-23T02:10:46.573Z,17.63
2022-08-23T02:11:46.864Z,17.69
2022-08-23T02:12:46.583Z,17.63
2022-08-23T02:13:46.827Z,17.63
2022-08-23T02:14:46.646Z,17.62
2022-08-23T02:16:58.046Z,17.62
2022-08-23T02:17:47.429Z,17.69
2022-08-23T02:30:59.299Z,17.38
2022-08-23T02:31:59.955Z,17.31
2022-08-23T02:57:48.495Z,17.07
2022-08-23T02:58:48.568Z,17.06
2022-08-23T02:59:48.755Z,17.07
2022-08-23T03:00:48.935Z,17.12
2022-08-23T03:01:48.606Z,17.09
2022-08-23T03:02:48.637Z,17.06
2022-08-23T03:03:49.112Z,17.05
2022-08-23T03:04:48.692Z,17.06
2022-08-23T03:05:48.767Z,17.13
2022-08-23T03:06:48.753Z,17.05
2022-08-23T03:42:57.781Z,16.76
2022-08-23T03:43:57.811Z,16.74
2022-08-23T03:45:01.911Z,16.80
2022-08-23T03:45:57.868Z,16.69
2022-08-23T03:46:57.893Z,16.67
2022-08-23T03:47:58.023Z,16.70
2022-08-23T03:48:57.952Z,16.65
2022-08-23T03:49:57.983Z,16.63
2022-08-23T03:50:58.007Z,16.70
2022-08-23T03:52:58.066Z,16.66
2022-08-23T03:53:58.093Z,16.67
2022-08-23T03:54:58.138Z,16.66
2022-08-23T03:57:43.301Z,16.51
2022-08-23T03:58:43.333Z,16.48
2022-08-23T03:59:43.358Z,16.49
2022-08-23T04:00:43.388Z,16.52
2022-08-23T04:01:43.469Z,16.48
2022-08-23T04:02:43.445Z,16.57
2022-08-23T04:03:43.473Z,16.52
2022-08-23T04:04:43.503Z,16.54
2022-08-23T04:05:43.532Z,16.55
2022-08-23T04:06:43.560Z,16.66
2022-08-23T04:07:43.588Z,16.62
2022-08-23T04:08:43.619Z,16.59
2022-08-23T04:09:44.496Z,16.63
2022-08-23T04:10:43.675Z,16.67
2022-08-23T04:12:41.288Z,16.67
2022-08-23T04:14:41.343Z,16.67
2022-08-23T04:17:01.622Z,16.62
2022-08-23T04:18:32.237Z,16.58
2022-08-23T04:18:59.060Z,16.62
2022-08-23T04:19:59.085Z,16.54
2022-08-23T04:20:59.112Z,16.55
2022-08-23T04:21:59.142Z,16.47
2022-08-23T04:22:59.169Z,16.51
2022-08-23T04:23:59.197Z,16.57
2022-08-23T04:24:59.228Z,16.45
2022-08-23T04:25:59.254Z,16.36
2022-08-23T04:26:59.297Z,16.39
2022-08-23T04:27:59.554Z,16.44
2022-08-23T04:28:59.341Z,16.44
2022-08-23T04:29:59.369Z,16.40
2022-08-23T04:30:59.399Z,16.48
2022-08-23T04:31:59.430Z,16.42
2022-08-23T04:32:59.455Z,16.40
2022-08-23T04:33:59.484Z,16.44
2022-08-23T04:34:59.514Z,16.33
2022-08-23T04:35:59.541Z,16.37
2022-08-23T04:36:59.571Z,16.36
2022-08-23T04:37:59.834Z,16.42
2022-08-23T04:38:59.630Z,16.36
2022-08-23T04:39:59.679Z,16.33
2022-08-23T04:40:59.687Z,16.42
2022-08-23T04:41:59.714Z,16.44
2022-08-23T04:42:59.746Z,16.29
2022-08-23T04:44:00.581Z,16.37
2022-08-23T04:44:59.801Z,16.32
2022-08-23T04:45:59.825Z,16.40
2022-08-23T04:46:59.856Z,16.40
2022-08-23T04:48:00.176Z,16.32
2022-08-23T04:48:59.911Z,16.40
2022-08-23T04:49:59.952Z,16.32
2022-08-23T04:51:00.182Z,16.39
2022-08-23T04:52:00.010Z,16.45
2022-08-23T04:53:00.238Z,16.40
2022-08-23T04:55:00.100Z,16.49
2022-08-23T04:56:00.329Z,16.52
2022-08-23T04:57:00.150Z,16.58
2022-08-23T04:59:00.412Z,16.52
2022-08-23T05:01:00.818Z,16.58
2022-08-23T05:02:00.301Z,16.57
2022-08-23T05:03:00.525Z,16.65
2022-08-23T05:05:00.581Z,16.67
2022-08-23T05:06:00.612Z,16.67
2022-08-23T05:10:00.524Z,16.63
2022-08-23T05:12:00.783Z,16.63
2022-08-23T05:15:01.366Z,16.73
2022-08-23T05:17:01.841Z,16.85
2022-08-23T05:22:00.871Z,16.91
2022-08-23T05:29:03.199Z,17.03
2022-08-23T05:34:01.417Z,17.17
2022-08-23T05:39:03.177Z,17.79
2022-08-23T05:40:02.409Z,17.99
2022-08-23T05:47:01.884Z,18.13
2022-08-23T05:50:02.802Z,18.17
2022-08-23T05:51:03.327Z,18.17
2022-08-23T05:55:04.438Z,18.36
2022-08-23T05:58:02.244Z,18.49
2022-08-23T05:59:02.151Z,18.57
2022-08-23T06:00:01.964Z,18.57
2022-08-23T06:01:02.055Z,18.76
2022-08-23T06:02:02.018Z,18.90
2022-08-23T06:03:02.051Z,18.94
2022-08-23T06:04:05.913Z,19.07
2022-08-23T06:05:02.330Z,19.37
2022-08-23T06:06:02.661Z,19.57
2022-08-23T06:07:02.170Z,19.87
2022-08-23T06:08:02.459Z,20.05
2022-08-23T06:09:02.227Z,20.22
2022-08-23T06:10:02.256Z,20.46
2022-08-23T06:11:02.291Z,20.67
2022-08-23T06:12:02.318Z,21.25
2022-08-23T06:13:02.349Z,21.55
2022-08-23T06:14:02.451Z,22.14
2022-08-23T06:15:02.406Z,22.31
2022-08-23T06:16:03.131Z,22.24
2022-08-23T06:17:02.466Z,22.15
2022-08-23T06:19:35.166Z,23.22
2022-08-23T06:20:35.573Z,23.25
2022-08-23T06:21:35.242Z,22.97
2022-08-23T06:22:35.275Z,22.76
2022-08-23T06:24:35.740Z,22.73
2022-08-23T06:25:35.372Z,22.89
2022-08-23T06:26:35.805Z,22.61
2022-08-23T06:27:35.639Z,22.51
2022-08-23T06:28:36.233Z,22.36
2022-08-23T06:29:36.108Z,22.34
2022-08-23T06:30:39.581Z,22.27
2022-08-23T06:32:36.579Z,22.11
2022-08-23T06:33:36.183Z,22.04
2022-08-23T06:34:35.863Z,22.02
2022-08-23T06:37:36.252Z,22.15
2022-08-23T06:51:36.213Z,25.17
2022-08-23T06:52:36.430Z,25.78
2022-08-23T06:53:36.784Z,26.26
2022-08-23T06:54:36.305Z,26.86
2022-08-23T06:55:36.328Z,27.36
2022-08-23T06:56:36.360Z,27.57
2022-08-23T06:57:37.812Z,27.34
2022-08-23T06:58:39.653Z,26.74
2022-08-23T06:59:36.462Z,26.06
2022-08-23T07:00:36.529Z,25.47
2022-08-23T07:01:49.097Z,25.07
2022-08-23T07:02:36.604Z,24.55
2022-08-23T07:03:36.748Z,24.46
2022-08-23T07:06:36.696Z,26.61
2022-08-23T07:07:41.239Z,27.06
2022-08-23T07:08:36.765Z,27.51
2022-08-23T07:09:36.797Z,27.96
2022-08-23T07:10:36.835Z,28.41
2022-08-23T07:11:36.871Z,28.02
2022-08-23T07:12:36.904Z,28.30
2022-08-23T07:13:36.938Z,28.43
2022-08-23T07:14:36.976Z,28.67
2022-08-23T07:15:37.009Z,28.82
2022-08-23T07:16:37.147Z,28.88
2022-08-23T07:17:37.093Z,29.02
2022-08-23T07:18:37.132Z,29.06
2022-08-23T07:20:10.366Z,29.29
2022-08-23T07:20:37.190Z,29.23
2022-08-23T07:22:10.440Z,29.29
2022-08-23T07:22:37.267Z,29.13
2022-08-23T07:24:19.859Z,29.69
2022-08-23T07:25:19.899Z,29.92
2022-08-23T07:26:19.935Z,29.77
2022-08-23T07:27:21.386Z,29.79
2022-08-23T07:28:20.009Z,29.77
2022-08-23T07:29:20.049Z,30.06
2022-08-23T07:30:20.085Z,30.09
2022-08-23T07:31:20.246Z,30.25
2022-08-23T07:32:20.240Z,30.56
2022-08-23T07:33:20.201Z,30.44
2022-08-23T07:34:20.242Z,30.54
2022-08-23T07:35:21.603Z,30.37
2022-08-23T07:36:20.321Z,30.57
2022-08-23T07:37:20.360Z,30.62
2022-08-23T07:38:20.398Z,30.69
2022-08-23T07:40:20.987Z,30.81
2022-08-23T07:41:20.718Z,31.01
2022-08-23T07:42:23.735Z,31.37
2022-08-23T07:43:20.798Z,31.36
2022-08-23T07:44:22.455Z,31.31
2022-08-23T07:45:22.307Z,31.22
2022-08-23T07:46:20.757Z,31.21
2022-08-23T07:47:20.758Z,31.01
2022-08-23T07:48:37.323Z,31.19
2022-08-23T07:49:20.842Z,30.57
2022-08-23T07:50:20.878Z,30.78
2022-08-23T07:51:20.962Z,30.94
2022-08-23T07:52:20.959Z,31.06
2022-08-23T07:53:37.465Z,31.31
2022-08-23T07:54:21.038Z,31.50
2022-08-23T07:55:21.081Z,31.45
2022-08-23T07:56:21.118Z,31.87
2022-08-23T07:57:21.164Z,31.88
2022-08-23T07:58:21.202Z,32.01
2022-08-23T07:59:21.243Z,31.91
2022-08-23T08:00:21.285Z,31.72
2022-08-23T08:01:24.367Z,31.94
2022-08-23T08:02:22.375Z,32.15
2022-08-23T08:03:21.420Z,32.15
2022-08-23T08:04:21.456Z,32.05
2022-08-23T08:05:22.113Z,32.24
2022-08-23T08:06:21.537Z,32.09
2022-08-23T08:07:21.786Z,31.70
2022-08-23T08:08:21.609Z,31.44
2022-08-23T08:09:21.652Z,31.56
2022-08-23T08:10:21.752Z,31.53
2022-08-23T08:11:21.736Z,31.44
2022-08-23T08:12:21.775Z,31.47
2022-08-23T08:13:21.826Z,31.07
2022-08-23T08:14:21.859Z,31.21
2022-08-23T08:15:21.900Z,31.52
2022-08-23T08:16:22.018Z,32.00
2022-08-23T08:17:26.834Z,32.37
2022-08-23T08:18:22.022Z,32.61
2022-08-23T08:19:22.078Z,32.37
2022-08-23T08:20:22.223Z,32.61
2022-08-23T08:21:22.149Z,32.50
2022-08-23T08:22:22.186Z,32.71
2022-08-23T08:23:22.230Z,32.81
2022-08-23T08:24:22.271Z,32.74
2022-08-23T08:25:22.313Z,33.02
2022-08-23T08:26:22.353Z,33.03
2022-08-23T08:27:22.395Z,33.17
2022-08-23T08:28:22.435Z,33.34
2022-08-23T08:30:22.521Z,33.26
2022-08-23T08:31:22.614Z,33.03
2022-08-23T08:32:22.603Z,32.93
2022-08-23T08:33:22.643Z,33.16
2022-08-23T08:34:22.686Z,33.02
2022-08-23T08:35:22.753Z,33.26
2022-08-23T08:36:22.769Z,33.32
2022-08-23T08:37:22.810Z,33.29
2022-08-23T08:38:22.851Z,32.99
2022-08-23T08:39:22.891Z,32.89
2022-08-23T08:40:22.975Z,32.74
2022-08-23T08:41:22.981Z,33.01
2022-08-23T08:42:23.021Z,32.98
2022-08-23T08:43:23.056Z,32.87
2022-08-23T08:44:23.100Z,32.49
2022-08-23T08:45:23.441Z,32.32
2022-08-23T08:46:23.212Z,32.45
2022-08-23T08:47:23.232Z,32.15
2022-08-23T08:48:23.266Z,31.47
2022-08-23T08:49:23.509Z,31.91
2022-08-23T08:50:23.349Z,32.25
2022-08-23T08:51:23.400Z,32.12
2022-08-23T08:52:23.446Z,32.15
2022-08-23T08:53:23.474Z,32.20
2022-08-23T08:54:23.516Z,32.00
2022-08-23T08:55:23.555Z,31.91
2022-08-23T08:56:23.598Z,32.19
2022-08-23T08:57:27.312Z,32.43
2022-08-23T08:58:23.681Z,32.54
2022-08-23T08:59:23.724Z,32.59
2022-08-23T09:00:23.762Z,32.71
2022-08-23T09:01:23.840Z,32.91
2022-08-23T09:02:32.410Z,33.06
2022-08-23T09:03:23.932Z,32.87
2022-08-23T09:04:23.923Z,33.05
2022-08-23T09:05:23.965Z,33.32
2022-08-23T09:06:24.017Z,33.74
2022-08-23T09:07:26.890Z,33.97
2022-08-23T09:08:24.088Z,34.17
2022-08-23T09:09:24.129Z,34.27
2022-08-23T09:10:24.173Z,34.40
2022-08-23T09:11:24.220Z,33.89
2022-08-23T09:12:24.251Z,33.81
2022-08-23T09:13:24.292Z,33.97
2022-08-23T09:14:24.335Z,33.95
2022-08-23T09:15:24.371Z,34.03
2022-08-23T09:16:24.414Z,34.06
2022-08-23T09:17:24.455Z,33.81
2022-08-23T09:18:24.499Z,34.27
2022-08-23T09:19:25.132Z,33.83
2022-08-23T09:20:24.584Z,33.74
2022-08-23T09:21:24.620Z,33.97
2022-08-23T09:22:24.665Z,34.12
2022-08-23T09:23:24.703Z,34.40
2022-08-23T09:24:24.747Z,34.08
2022-08-23T09:25:24.799Z,34.21
2022-08-23T09:26:24.840Z,34.14
2022-08-23T09:27:24.870Z,34.21
2022-08-23T09:28:24.913Z,34.17
2022-08-23T09:29:24.954Z,34.00
2022-08-23T09:30:24.998Z,33.96
2022-08-23T09:31:25.058Z,34.02
2022-08-23T09:32:25.077Z,34.12
2022-08-23T09:33:26.235Z,34.24
2022-08-23T09:34:25.163Z,34.45
2022-08-23T09:35:25.202Z,34.52
2022-08-23T09:36:25.245Z,34.69
2022-08-23T09:37:25.285Z,34.63
2022-08-23T09:39:30.694Z,34.33
2022-08-23T09:40:25.411Z,34.26
2022-08-23T09:41:25.449Z,34.12
2022-08-23T09:43:25.538Z,34.11
2022-08-23T09:44:25.573Z,34.40
2022-08-23T09:45:26.524Z,34.59
2022-08-23T09:46:25.697Z,34.74
2022-08-23T09:47:25.706Z,34.67
2022-08-23T09:48:30.695Z,34.81
2022-08-23T09:49:25.781Z,34.66
2022-08-23T09:50:25.826Z,34.33
2022-08-23T09:51:25.864Z,33.84
2022-08-23T09:52:25.905Z,33.89
2022-08-23T09:53:25.948Z,33.84
2022-08-23T09:54:25.975Z,34.19
2022-08-23T09:55:26.011Z,34.40
2022-08-23T09:56:26.444Z,34.66
2022-08-23T09:57:26.105Z,35.16
2022-08-23T09:58:26.145Z,34.99
2022-08-23T09:59:26.785Z,34.89
2022-08-23T10:00:26.218Z,34.69
2022-08-23T10:01:26.347Z,34.96
2022-08-23T10:02:27.542Z,34.93
2022-08-23T10:03:26.327Z,35.02
2022-08-23T10:04:26.444Z,34.87
2022-08-23T10:05:26.402Z,34.61
2022-08-23T10:06:26.444Z,34.67
2022-08-23T10:07:26.891Z,34.54
2022-08-23T10:08:26.517Z,34.45
2022-08-23T10:09:26.555Z,34.17
2022-08-23T10:10:26.597Z,33.99
2022-08-23T10:11:26.637Z,34.14
2022-08-23T10:13:09.237Z,34.05
2022-08-23T10:14:09.286Z,34.37
2022-08-23T10:17:56.963Z,34.26
2022-08-23T10:18:57.002Z,34.49
2022-08-23T10:19:57.041Z,34.19
2022-08-23T10:20:57.078Z,34.26
2022-08-23T10:21:57.116Z,34.15
2022-08-23T10:27:58.760Z,34.26
2022-08-23T10:28:57.380Z,34.26
2022-08-23T10:29:57.422Z,34.43
2022-08-23T10:30:57.561Z,34.55
2022-08-23T10:31:59.264Z,34.56
2022-08-23T10:32:58.546Z,34.75
2022-08-23T10:33:57.575Z,34.94
2022-08-23T10:34:57.615Z,34.64
2022-08-23T10:35:57.652Z,34.54
2022-08-23T10:36:57.691Z,34.05
2022-08-23T10:37:57.801Z,34.17
2022-08-23T10:38:57.776Z,34.30
2022-08-23T10:40:01.643Z,34.66
2022-08-23T10:40:57.842Z,34.55
2022-08-23T10:41:57.883Z,34.89
2022-08-23T10:42:57.920Z,34.94
2022-08-23T10:43:57.959Z,34.89
2022-08-23T10:44:57.996Z,34.51
2022-08-23T10:46:00.400Z,34.63
2022-08-23T10:46:58.075Z,34.54
2022-08-23T10:47:58.113Z,34.46
2022-08-23T10:48:58.149Z,34.48
2022-08-23T10:49:58.188Z,34.72
2022-08-23T10:50:58.226Z,34.64
2022-08-23T10:51:58.265Z,34.75
2022-08-23T10:52:58.302Z,34.90
2022-08-23T10:53:58.343Z,35.02
2022-08-23T10:54:58.379Z,35.16
2022-08-23T10:55:58.419Z,35.20
2022-08-23T10:56:58.456Z,35.16
2022-08-23T10:57:58.494Z,34.84
2022-08-23T10:58:58.531Z,34.81
2022-08-23T10:59:58.570Z,34.79
2022-08-23T11:00:58.606Z,34.81
2022-08-23T11:01:58.716Z,34.55
2022-08-23T11:02:58.732Z,33.85
2022-08-23T11:03:58.722Z,33.81
2022-08-23T11:04:58.758Z,33.89
2022-08-23T11:05:58.799Z,33.87
2022-08-23T11:06:58.835Z,33.84
2022-08-23T11:07:58.876Z,33.89
2022-08-23T11:08:58.910Z,33.73
2022-08-23T11:09:58.955Z,33.90
2022-08-23T11:10:58.986Z,33.89
2022-08-23T11:11:59.024Z,33.68
2022-08-23T11:12:59.060Z,33.61
2022-08-23T11:13:59.099Z,33.63
2022-08-23T11:14:59.135Z,33.62
2022-08-23T11:15:59.239Z,33.61
2022-08-23T11:16:59.208Z,33.63
2022-08-23T11:17:59.247Z,33.62
2022-08-23T11:18:59.282Z,33.58
2022-08-23T11:19:59.336Z,33.61
2022-08-23T11:20:59.356Z,33.39
2022-08-23T11:21:59.395Z,33.18
2022-08-23T11:22:59.432Z,32.91
2022-08-23T11:23:59.469Z,32.99
2022-08-23T11:24:59.505Z,32.71
2022-08-23T11:25:59.543Z,32.64
2022-08-23T11:27:04.010Z,32.62
2022-08-23T11:27:59.631Z,32.53
2022-08-23T11:29:59.688Z,32.23
2022-08-23T11:30:59.749Z,32.30
2022-08-23T11:31:59.765Z,32.06
2022-08-23T11:32:59.796Z,31.87
2022-08-23T11:33:59.835Z,31.88
2022-08-23T11:34:59.869Z,31.86
2022-08-23T11:35:59.907Z,31.74
2022-08-23T11:36:59.941Z,31.87
2022-08-23T11:39:00.016Z,31.95
2022-08-23T11:40:00.177Z,31.87
2022-08-23T11:41:00.096Z,31.70
2022-08-23T11:42:45.296Z,31.70
2022-08-23T11:43:42.707Z,31.60
2022-08-23T11:44:42.745Z,31.68
2022-08-23T11:45:42.777Z,31.59
2022-08-23T11:46:42.812Z,31.68
2022-08-23T11:47:42.857Z,31.72
2022-08-23T11:48:43.615Z,31.74
2022-08-23T11:49:42.922Z,31.88
2022-08-23T11:50:42.957Z,32.00
2022-08-23T11:51:44.409Z,32.06
2022-08-23T11:52:43.038Z,31.91
2022-08-23T11:53:43.280Z,31.67
2022-08-23T11:55:44.261Z,31.38
2022-08-23T12:11:12.491Z,32.31
2022-08-23T12:12:12.527Z,32.37
2022-08-23T12:13:12.559Z,32.13
2022-08-23T12:14:12.598Z,31.86
2022-08-23T12:15:12.633Z,31.82
2022-08-23T12:16:16.797Z,31.81
2022-08-23T12:17:12.701Z,31.60
2022-08-23T12:18:12.865Z,31.65
2022-08-23T12:19:13.506Z,31.80
2022-08-23T12:20:16.514Z,31.77
2022-08-23T12:21:12.842Z,31.86
2022-08-23T12:22:12.878Z,31.94
2022-08-23T12:23:12.913Z,32.06
2022-08-23T12:24:12.949Z,32.05
2022-08-23T12:25:15.614Z,31.91
2022-08-23T12:26:13.018Z,31.70
2022-08-23T12:27:16.483Z,31.67
2022-08-23T12:28:13.089Z,31.80
2022-08-23T12:29:13.152Z,31.91
2022-08-23T12:30:13.157Z,31.93
2022-08-23T12:31:14.169Z,31.91
2022-08-23T12:32:13.229Z,32.05
2022-08-23T12:33:13.260Z,32.12
2022-08-23T12:34:13.299Z,32.23
2022-08-23T12:35:13.334Z,32.32
2022-08-23T12:36:16.473Z,32.25
2022-08-23T12:37:13.405Z,32.31
2022-08-23T12:38:13.439Z,32.25
2022-08-23T12:39:13.472Z,32.20
2022-08-23T12:40:13.582Z,32.30
2022-08-23T12:41:13.543Z,32.31
2022-08-23T12:42:13.581Z,32.39
2022-08-23T12:43:17.410Z,32.52
2022-08-23T12:44:13.650Z,32.52
2022-08-23T12:45:13.683Z,32.64
2022-08-23T12:46:13.787Z,32.57
2022-08-23T12:47:13.756Z,32.53
2022-08-23T12:48:13.799Z,32.46
2022-08-23T12:49:15.133Z,32.50
2022-08-23T12:50:15.125Z,32.45
2022-08-23T12:51:13.895Z,32.43
2022-08-23T12:52:13.932Z,32.53
2022-08-23T12:53:13.965Z,32.50
2022-08-23T12:54:14.001Z,32.46
2022-08-23T12:55:14.035Z,32.50
2022-08-23T12:56:14.076Z,32.45
2022-08-23T12:57:14.106Z,32.37
2022-08-23T12:58:14.290Z,32.42
2022-08-23T12:59:14.176Z,32.20
2022-08-23T13:00:16.596Z,32.23
2022-08-23T13:01:14.284Z,32.10
2022-08-23T13:02:14.342Z,32.08
2022-08-23T13:03:14.315Z,32.06
2022-08-23T13:04:14.353Z,32.13
2022-08-23T13:05:14.386Z,32.23
2022-08-23T13:06:14.431Z,32.19
2022-08-23T13:07:14.456Z,32.17
2022-08-23T13:08:14.493Z,32.35
2022-08-23T13:09:14.530Z,32.30
2022-08-23T13:10:14.562Z,32.38
2022-08-23T13:11:14.597Z,32.37
2022-08-23T13:12:14.635Z,32.27
2022-08-23T13:13:14.869Z,32.23
2022-08-23T13:14:14.705Z,32.13
2022-08-23T13:15:14.737Z,32.25
2022-08-23T13:16:14.835Z,32.17
2022-08-23T13:17:15.024Z,32.17
2022-08-23T13:18:14.845Z,32.24
2022-08-23T13:19:14.877Z,32.17
2022-08-23T13:20:15.325Z,32.32
2022-08-23T13:21:14.949Z,32.34
2022-08-23T13:22:14.986Z,32.32
2022-08-23T13:23:15.018Z,32.27
2022-08-23T13:24:15.056Z,32.13
2022-08-23T13:25:28.596Z,32.16
2022-08-23T13:26:15.127Z,32.15
2022-08-23T13:27:15.362Z,32.01
2022-08-23T13:28:15.209Z,31.93
2022-08-23T13:29:15.230Z,31.71
2022-08-23T13:30:15.267Z,31.67
2022-08-23T13:31:15.413Z,31.82
2022-08-23T13:32:15.338Z,31.90
2022-08-23T13:33:15.371Z,31.90
2022-08-23T13:34:15.408Z,31.94
2022-08-23T13:35:15.442Z,32.06
2022-08-23T13:36:15.478Z,32.17
2022-08-23T13:37:15.510Z,32.06
2022-08-23T13:38:20.121Z,32.09
2022-08-23T13:39:15.583Z,32.19
2022-08-23T13:40:15.654Z,32.05
2022-08-23T13:41:15.653Z,32.10
2022-08-23T13:42:15.690Z,32.00
2022-08-23T13:43:15.723Z,31.86
2022-08-23T13:44:19.151Z,31.93
2022-08-23T13:45:15.794Z,31.87
2022-08-23T13:46:15.876Z,31.94
2022-08-23T13:47:15.864Z,31.98
2022-08-23T13:48:15.899Z,31.97
2022-08-23T13:49:15.935Z,31.87
2022-08-23T13:50:15.971Z,31.94
2022-08-23T13:51:16.005Z,31.93
2022-08-23T13:52:50.592Z,31.95
2022-08-23T13:53:16.077Z,32.06
2022-08-23T13:54:16.111Z,32.13
2022-08-23T13:55:16.146Z,32.23
2022-08-23T13:56:16.182Z,32.23
2022-08-23T13:57:16.216Z,32.42
2022-08-23T13:58:16.252Z,32.39
2022-08-23T13:59:16.284Z,32.52
2022-08-23T14:00:19.464Z,32.49
2022-08-23T14:01:16.409Z,32.39
2022-08-23T14:02:16.393Z,32.46
2022-08-23T14:03:16.426Z,32.46
2022-08-23T14:04:16.464Z,32.42
2022-08-23T14:05:16.545Z,32.42
2022-08-23T14:06:16.534Z,32.42
2022-08-23T14:07:16.570Z,32.38
2022-08-23T14:08:16.604Z,32.27
2022-08-23T14:09:16.640Z,32.19
2022-08-23T14:10:16.674Z,32.19
2022-08-23T14:11:16.708Z,32.12
2022-08-23T14:12:16.744Z,32.10
2022-08-23T14:13:16.784Z,32.08
2022-08-23T14:14:16.816Z,32.01
2022-08-23T14:15:16.849Z,32.09
2022-08-23T14:16:33.191Z,32.05
2022-08-23T14:18:16.953Z,32.03
2022-08-23T14:19:19.135Z,32.08
2022-08-23T14:20:33.996Z,32.08
2022-08-23T14:21:17.062Z,32.12
2022-08-23T14:22:17.095Z,32.16
2022-08-23T14:23:17.136Z,32.09
2022-08-23T14:24:17.167Z,32.12
2022-08-23T14:25:17.202Z,32.10
2022-08-23T14:26:17.245Z,31.91
2022-08-23T14:27:17.271Z,31.88
2022-08-23T14:28:17.306Z,31.72
2022-08-23T14:29:17.342Z,31.75
2022-08-23T14:30:17.397Z,31.75
2022-08-23T14:31:17.459Z,31.68
2022-08-23T14:32:17.444Z,31.70
2022-08-23T14:33:17.483Z,31.71
2022-08-23T14:34:17.514Z,31.81
2022-08-23T14:35:17.550Z,31.78
2022-08-23T14:36:17.585Z,31.86
2022-08-23T14:38:00.464Z,31.91
2022-08-23T14:38:18.041Z,31.91
2022-08-23T14:39:17.692Z,32.03
2022-08-23T14:40:17.800Z,32.10
2022-08-23T14:41:17.761Z,32.06
2022-08-23T14:42:17.808Z,32.16
2022-08-23T14:43:17.831Z,32.08
2022-08-23T14:44:17.863Z,32.05
2022-08-23T14:45:17.899Z,31.93
2022-08-23T14:46:17.995Z,31.93
2022-08-23T14:47:17.968Z,31.91
2022-08-23T14:48:18.002Z,31.93
2022-08-23T14:49:18.039Z,31.97
2022-08-23T14:50:18.072Z,32.00
2022-08-23T14:51:18.108Z,31.93
2022-08-23T14:52:18.144Z,31.97
2022-08-23T14:53:18.181Z,31.88
2022-08-23T14:54:18.211Z,31.90
2022-08-23T14:55:20.219Z,31.97
2022-08-23T14:56:21.555Z,32.00
2022-08-23T14:57:18.376Z,32.05
2022-08-23T14:58:18.354Z,32.05
2022-08-23T14:59:18.387Z,32.19
2022-08-23T15:00:18.423Z,32.16
2022-08-23T15:01:18.546Z,32.20
2022-08-23T15:02:18.490Z,32.31
2022-08-23T15:03:18.560Z,32.39
2022-08-23T15:04:18.564Z,32.49
2022-08-23T15:05:18.598Z,32.45
2022-08-23T15:06:18.631Z,32.67
2022-08-23T15:07:19.493Z,32.53
2022-08-23T15:08:18.702Z,32.54
2022-08-23T15:09:18.740Z,32.52
2022-08-23T15:13:27.425Z,32.34
2022-08-23T15:14:18.910Z,32.19
2022-08-23T15:15:21.839Z,32.16
2022-08-23T15:16:19.045Z,32.19
2022-08-23T15:17:19.017Z,32.23
2022-08-23T15:18:19.050Z,32.16
2022-08-23T15:19:19.088Z,32.12
2022-08-23T15:20:19.122Z,31.97
2022-08-23T15:21:19.159Z,31.97
2022-08-23T15:22:22.056Z,31.94
2022-08-23T15:23:19.228Z,31.91
2022-08-23T15:24:19.262Z,31.88
2022-08-23T15:25:19.300Z,31.87
2022-08-23T15:26:19.332Z,31.93
2022-08-23T15:27:19.470Z,31.77
2022-08-23T15:28:19.403Z,31.63
2022-08-23T15:29:20.499Z,31.62
2022-08-23T15:30:19.477Z,31.65
2022-08-23T15:31:19.509Z,31.58
2022-08-23T15:32:22.622Z,31.56
2022-08-23T15:33:22.343Z,31.55
2022-08-23T15:34:19.612Z,31.55
2022-08-23T15:35:19.649Z,31.49
2022-08-23T15:36:19.682Z,31.52
2022-08-23T15:37:19.719Z,31.47
2022-08-23T15:44:12.342Z,31.30
2022-08-23T15:45:12.378Z,31.31
2022-08-23T15:46:12.495Z,31.26
2022-08-23T15:47:12.447Z,31.26
2022-08-23T15:48:12.481Z,31.26
2022-08-23T15:49:12.517Z,31.38
2022-08-23T15:50:12.552Z,31.25
2022-08-23T15:51:13.391Z,31.30
2022-08-23T15:52:12.615Z,31.30
2022-08-23T15:53:12.649Z,31.18
2022-08-23T15:54:12.680Z,31.15
2022-08-23T15:55:12.713Z,31.19
2022-08-23T15:56:12.745Z,31.23
2022-08-23T15:57:12.782Z,31.23
2022-08-23T15:58:12.818Z,31.21
2022-08-23T15:59:13.000Z,31.19
2022-08-23T16:00:12.884Z,31.16
2022-08-23T16:01:12.955Z,31.19
2022-08-23T16:02:13.001Z,31.21
2022-08-23T16:03:20.460Z,31.18
2022-08-23T16:04:13.019Z,31.08
2022-08-23T16:05:13.055Z,31.21
2022-08-23T16:06:13.088Z,31.19
2022-08-23T16:17:32.612Z,30.89
2022-08-23T16:18:32.647Z,30.82
2022-08-23T16:19:32.678Z,30.81
2022-08-23T16:20:32.715Z,30.77
2022-08-23T16:21:32.749Z,30.78
2022-08-23T16:22:32.783Z,30.79
2022-08-23T16:23:32.814Z,30.75
2022-08-23T16:24:32.850Z,30.75
2022-08-23T16:25:32.885Z,30.70
2022-08-23T16:26:35.339Z,30.73
2022-08-23T16:27:33.272Z,30.64
2022-08-23T16:28:32.993Z,30.71
2022-08-23T16:29:33.019Z,30.71
2022-08-23T16:30:33.116Z,30.75
2022-08-23T16:31:38.757Z,30.75
2022-08-23T16:32:33.123Z,30.63
2022-08-23T16:33:33.155Z,30.69
2022-08-23T16:34:33.190Z,30.62
2022-08-23T16:35:33.225Z,30.57
2022-08-23T16:36:33.261Z,30.67
2022-08-23T16:37:33.291Z,30.71
2022-08-23T16:38:33.330Z,30.70
2022-08-23T16:39:33.361Z,30.73
2022-08-23T16:40:33.414Z,30.64
2022-08-23T16:41:33.427Z,30.70
2022-08-23T16:42:33.462Z,30.56
2022-08-23T16:43:33.495Z,30.59
2022-08-23T16:44:33.528Z,30.49
2022-08-23T16:45:33.624Z,30.44
2022-08-23T16:46:33.600Z,30.45
2022-08-23T16:47:33.636Z,30.45
2022-08-23T16:48:33.664Z,30.47
2022-08-23T16:49:33.702Z,30.48
2022-08-23T16:50:33.733Z,30.37